createdAt,value
2019-01-18T00:00:01.608Z,11.2
2019-01-18T00:00:51.604Z,11.2
2019-01-18T00:01:42.199Z,11.1
2019-01-18T00:02:31.138Z,11.1
2019-01-18T00:03:37.021Z,11.1
2019-01-18T00:04:12.668Z,11.1
2019-01-18T00:05:02.316Z,11.1
2019-01-18T00:05:52.498Z,11.1
2019-01-18T00:06:42.531Z,11.1
2019-01-18T00:07:32.566Z,11.1
2019-01-18T00:08:22.173Z,11.1
2019-01-18T00:09:11.608Z,11.1
2019-01-18T00:10:02.021Z,11.1
2019-01-18T00:10:52.525Z,11.1
2019-01-18T00:11:42.038Z,11.1
2019-01-18T00:12:33.198Z,11.1
2019-01-18T00:13:21.862Z,11.1
2019-01-18T00:14:12.773Z,11.1
2019-01-18T00:15:03.173Z,11.1
2019-01-18T00:15:54.008Z,11.1
2019-01-18T00:16:42.367Z,11.1
2019-01-18T00:17:32.427Z,11.1
2019-01-18T00:18:23.042Z,11
2019-01-18T00:19:12.545Z,11
2019-01-18T00:20:04.047Z,11
2019-01-18T00:20:52.671Z,11
2019-01-18T00:21:43.037Z,10.9
2019-01-18T00:22:33.867Z,10.9
2019-01-18T00:23:23.652Z,10.9
2019-01-18T00:24:14.259Z,11
2019-01-18T00:25:04.357Z,10.9
2019-01-18T00:25:53.607Z,10.9
2019-01-18T00:26:44.180Z,10.9
2019-01-18T00:27:34.522Z,10.9
2019-01-18T00:28:23.891Z,10.9
2019-01-18T00:29:13.325Z,10.9
2019-01-18T00:30:03.632Z,10.9
2019-01-18T00:30:54.004Z,10.9
2019-01-18T00:31:43.469Z,10.9
2019-01-18T00:32:33.812Z,10.9
2019-01-18T00:33:23.917Z,10.9
2019-01-18T00:34:14.196Z,10.9
2019-01-18T00:35:04.562Z,10.9
2019-01-18T00:35:54.102Z,10.9
2019-01-18T00:36:44.111Z,10.9
2019-01-18T00:37:33.880Z,10.9
2019-01-18T00:38:24.256Z,10.9
2019-01-18T00:39:14.876Z,10.8
2019-01-18T00:40:04.631Z,10.8
2019-01-18T00:40:54.301Z,10.8
2019-01-18T03:08:47.362Z,10.3
2019-01-18T03:09:36.382Z,10.3
2019-01-18T03:10:27.816Z,10.3
2019-01-18T03:11:17.817Z,10.3
2019-01-18T03:12:07.119Z,10.3
2019-01-18T03:12:58.178Z,10.3
2019-01-18T03:13:47.426Z,10.3
2019-01-18T03:14:37.995Z,10.3
2019-01-18T03:15:27.839Z,10.3
2019-01-18T03:16:16.794Z,10.3
2019-01-18T03:17:06.890Z,10.3
2019-01-18T03:17:57.764Z,10.3
2019-01-18T03:18:47.853Z,10.3
2019-01-18T03:19:38.684Z,10.3
2019-01-18T03:20:28.183Z,10.3
2019-01-18T03:21:18.444Z,10.3
2019-01-18T03:22:21.793Z,10.3
2019-01-18T03:22:57.288Z,10.3
2019-01-18T03:23:48.641Z,10.3
2019-01-18T03:24:38.561Z,10.3
2019-01-18T03:25:28.757Z,10.3
2019-01-18T03:26:18.307Z,10.3
2019-01-18T03:27:08.912Z,10.3
2019-01-18T03:27:58.729Z,10.3
2019-01-18T03:28:48.824Z,10.3
2019-01-18T03:29:39.088Z,10.3
2019-01-18T03:30:30.511Z,10.3
2019-01-18T03:31:19.426Z,10.3
2019-01-18T03:32:09.169Z,10.3
2019-01-18T03:32:59.750Z,10.3
2019-01-18T03:33:48.065Z,10.3
2019-01-18T03:34:39.428Z,10.3
2019-01-18T03:35:29.508Z,10.3
2019-01-18T03:36:18.758Z,10.3
2019-01-18T03:37:08.871Z,10.3
2019-01-18T03:37:59.443Z,10.3
2019-01-18T03:38:49.725Z,10.3
2019-01-18T03:39:39.852Z,10.3
2019-01-18T03:40:29.590Z,10.3
2019-01-18T03:41:18.845Z,10.3
2019-01-18T03:42:08.918Z,10.3
2019-01-18T03:42:59.900Z,10.3
2019-01-18T03:43:49.439Z,10.3
2019-01-18T03:44:38.526Z,10.3
2019-01-18T03:45:29.370Z,10.3
2019-01-18T03:46:19.947Z,10.3
2019-01-18T03:47:09.511Z,10.3
2019-01-18T03:47:59.510Z,10.3
2019-01-18T03:48:49.269Z,10.3
2019-01-18T03:49:40.154Z,10.3
2019-01-18T03:50:30.217Z,10.3
2019-01-18T03:51:19.974Z,10.3
2019-01-18T03:52:10.588Z,10.3
2019-01-18T03:53:01.209Z,10.3
2019-01-18T03:53:50.092Z,10.3
2019-01-18T03:54:40.591Z,10.3
2019-01-18T03:55:30.844Z,10.3
2019-01-18T03:56:20.346Z,10.3
2019-01-18T03:57:10.936Z,10.3
2019-01-18T03:58:00.701Z,10.3
2019-01-18T03:58:51.034Z,10.3
2019-01-18T03:59:40.297Z,10.3
2019-01-18T04:00:35.301Z,10.3
2019-01-18T04:01:21.292Z,10.3
2019-01-18T04:02:09.892Z,10.3
2019-01-18T04:03:01.420Z,10.3
2019-01-18T04:03:50.974Z,10.3
2019-01-18T04:04:40.954Z,10.3
2019-01-18T04:05:31.508Z,10.3
2019-01-18T04:06:21.847Z,10.3
2019-01-18T04:07:11.892Z,10.3
2019-01-18T04:08:01.641Z,10.3
2019-01-18T04:08:52.363Z,10.3
2019-01-18T04:09:42.573Z,10.3
2019-01-18T04:10:31.567Z,10.3
2019-01-18T04:11:22.124Z,10.3
2019-01-18T04:12:12.000Z,10.3
2019-01-18T04:13:01.731Z,10.3
2019-01-18T04:13:51.287Z,10.3
2019-01-18T04:14:41.569Z,10.3
2019-01-18T04:15:30.625Z,10.3
2019-01-18T04:16:21.740Z,10.3
2019-01-18T04:17:11.815Z,10.3
2019-01-18T04:18:01.101Z,10.3
2019-01-18T04:18:52.173Z,10.3
2019-01-18T04:19:42.698Z,10.3
2019-01-18T04:20:32.487Z,10.3
2019-01-18T04:21:23.087Z,10.3
2019-01-18T04:22:13.163Z,10.3
2019-01-18T04:23:02.975Z,10.3
2019-01-18T04:23:52.812Z,10.3
2019-01-18T04:24:42.499Z,10.3
2019-01-18T04:25:32.409Z,10.3
2019-01-18T04:26:23.463Z,10.3
2019-01-18T04:27:13.187Z,10.3
2019-01-18T04:28:03.024Z,10.3
2019-01-18T04:28:53.127Z,10.3
2019-01-18T04:29:42.335Z,10.3
2019-01-18T04:30:41.230Z,10.3
2019-01-18T04:31:23.784Z,10.3
2019-01-18T04:32:13.285Z,10.3
2019-01-18T04:33:03.679Z,10.3
2019-01-18T04:33:53.703Z,10.3
2019-01-18T04:34:44.004Z,10.3
2019-01-18T04:35:34.149Z,10.3
2019-01-18T04:36:24.220Z,10.3
2019-01-18T04:37:14.166Z,10.3
2019-01-18T04:38:03.754Z,10.3
2019-01-18T04:38:54.074Z,10.3
2019-01-18T04:39:43.523Z,10.3
2019-01-18T04:40:34.261Z,10.3
2019-01-18T04:41:24.229Z,10.3
2019-01-18T04:42:13.961Z,10.3
2019-01-18T04:43:03.214Z,10.3
2019-01-18T04:43:55.019Z,10.3
2019-01-18T04:44:44.444Z,10.3
2019-01-18T04:45:34.171Z,10.3
2019-01-18T04:46:24.522Z,10.3
2019-01-18T04:47:14.044Z,10.3
2019-01-18T04:48:04.073Z,10.3
2019-01-18T04:48:54.131Z,10.2
2019-01-18T04:49:44.243Z,10.1
2019-01-18T04:50:35.065Z,10.1
2019-01-18T04:51:24.303Z,10.1
2019-01-18T04:52:14.116Z,10.1
2019-01-18T04:53:04.407Z,10.1
2019-01-18T04:53:53.910Z,10.1
2019-01-18T04:54:44.288Z,10.1
2019-01-18T04:55:50.073Z,10.1
2019-01-18T04:56:23.818Z,10.1
2019-01-18T04:57:30.181Z,10.1
2019-01-18T04:58:04.812Z,10.1
2019-01-18T04:58:55.064Z,10.1
2019-01-18T04:59:45.443Z,10.1
2019-01-18T05:00:43.671Z,10.1
2019-01-18T05:01:25.852Z,10.1
2019-01-18T05:02:15.612Z,10.1
2019-01-18T05:03:05.671Z,10.1
2019-01-18T05:03:56.293Z,10.1
2019-01-18T05:04:45.292Z,10.1
2019-01-18T05:05:34.759Z,10.1
2019-01-18T05:06:24.520Z,10.1
2019-01-18T05:07:15.942Z,10.1
2019-01-18T05:08:05.723Z,10.1
2019-01-18T05:08:55.787Z,10.1
2019-01-18T05:09:45.514Z,10.1
2019-01-18T05:10:35.870Z,10.1
2019-01-18T05:11:26.754Z,10.1
2019-01-18T05:12:15.774Z,10.1
2019-01-18T05:13:06.947Z,10.1
2019-01-18T05:13:56.211Z,10.1
2019-01-18T05:14:45.905Z,10.1
2019-01-18T05:15:35.469Z,10.1
2019-01-18T05:16:27.161Z,10.1
2019-01-18T05:17:16.921Z,10.1
2019-01-18T05:18:06.769Z,10.1
2019-01-18T05:18:55.934Z,10.1
2019-01-18T05:19:47.734Z,10.1
2019-01-18T05:20:36.591Z,10.1
2019-01-18T05:21:26.907Z,10.1
2019-01-18T05:22:16.968Z,10.1
2019-01-18T05:23:07.034Z,10.1
2019-01-18T05:23:56.494Z,10.1
2019-01-18T05:24:54.273Z,10.1
2019-01-18T05:25:36.082Z,10.1
2019-01-18T05:26:26.728Z,10.1
2019-01-18T05:27:16.743Z,10.1
2019-01-18T05:28:06.856Z,10.1
2019-01-18T05:28:56.866Z,10.1
2019-01-18T05:29:45.270Z,10.1
2019-01-18T05:30:37.593Z,10.1
2019-01-18T05:31:27.285Z,10.1
2019-01-18T05:32:16.323Z,10.1
2019-01-18T05:33:07.249Z,10.1
2019-01-18T05:33:56.967Z,10.1
2019-01-18T05:34:47.078Z,10.1
2019-01-18T05:35:37.978Z,10.1
2019-01-18T05:36:27.630Z,10.1
2019-01-18T05:37:16.631Z,10.1
2019-01-18T05:38:07.838Z,10.1
2019-01-18T05:38:57.631Z,10.1
2019-01-18T05:39:47.350Z,10.1
2019-01-18T05:40:36.897Z,10.1
2019-01-18T05:41:28.042Z,10.1
2019-01-18T05:42:18.292Z,10.1
2019-01-18T05:43:08.632Z,10.1
2019-01-18T05:43:58.208Z,10.1
2019-01-18T05:44:48.411Z,10.1
2019-01-18T05:45:38.569Z,10.1
2019-01-18T05:46:27.585Z,10.1
2019-01-18T05:47:18.133Z,10.1
2019-01-18T05:48:08.137Z,10.1
2019-01-18T05:48:58.746Z,10.1
2019-01-18T05:49:48.844Z,10.1
2019-01-18T05:50:36.987Z,10.1
2019-01-18T05:51:28.114Z,10.1
2019-01-18T05:52:19.030Z,10.1
2019-01-18T05:53:09.027Z,10.1
2019-01-18T05:53:59.587Z,10.1
2019-01-18T05:54:48.864Z,10.1
2019-01-18T05:55:39.799Z,10.1
2019-01-18T05:56:28.969Z,10.1
2019-01-18T05:57:19.028Z,10.1
2019-01-18T05:58:08.537Z,10.1
2019-01-18T05:58:58.836Z,10.1
2019-01-18T05:59:49.486Z,10.1
2019-01-18T06:00:39.554Z,10.1
2019-01-18T06:01:31.885Z,10.1
2019-01-18T06:02:19.633Z,10.1
2019-01-18T06:03:09.973Z,10.1
2019-01-18T06:03:59.516Z,10.1
2019-01-18T06:06:47.798Z,10.1
2019-01-18T06:07:37.318Z,10.1
2019-01-18T06:08:28.051Z,10.1
2019-01-18T06:09:18.263Z,10.1
2019-01-18T06:10:08.309Z,10.1
2019-01-18T06:10:58.333Z,10.1
2019-01-18T06:11:48.106Z,10.1
2019-01-18T06:12:38.509Z,10.1
2019-01-18T06:13:28.509Z,10.1
2019-01-18T06:14:17.719Z,10.1
2019-01-18T06:15:08.143Z,10.1
2019-01-18T06:15:58.470Z,10.1
2019-01-18T06:16:48.466Z,10.1
2019-01-18T06:17:39.089Z,10.1
2019-01-18T06:18:28.058Z,10.1
2019-01-18T06:19:18.058Z,10.1
2019-01-18T06:20:08.305Z,10.1
2019-01-18T06:20:59.245Z,10.1
2019-01-18T06:21:49.355Z,10.1
2019-01-18T06:22:39.410Z,10.1
2019-01-18T06:23:29.258Z,10.1
2019-01-18T06:24:18.468Z,10.1
2019-01-18T06:25:09.621Z,10.1
2019-01-18T06:25:59.438Z,10.1
2019-01-18T06:26:49.783Z,10.1
2019-01-18T06:27:39.332Z,10.1
2019-01-18T06:28:29.245Z,10.1
2019-01-18T06:29:19.538Z,10.1
2019-01-18T06:30:09.377Z,10.1
2019-01-18T06:31:06.597Z,10.1
2019-01-18T06:31:49.735Z,10.1
2019-01-18T06:32:39.482Z,10.1
2019-01-18T06:33:31.500Z,10.1
2019-01-18T06:34:19.978Z,10.1
2019-01-18T06:35:10.304Z,10.1
2019-01-18T06:35:59.775Z,10.1
2019-01-18T06:36:49.130Z,10.1
2019-01-18T06:37:39.669Z,10.1
2019-01-18T06:38:30.444Z,10.1
2019-01-18T06:39:20.508Z,10.1
2019-01-18T06:40:10.355Z,10.1
2019-01-18T06:41:00.334Z,10.1
2019-01-18T06:41:50.143Z,10.1
2019-01-18T06:42:39.908Z,10.1
2019-01-18T06:43:30.786Z,10.1
2019-01-18T06:44:20.859Z,10.1
2019-01-18T06:45:10.343Z,10.1
2019-01-18T06:46:00.679Z,10.1
2019-01-18T06:46:49.731Z,10.1
2019-01-18T06:47:40.840Z,10.1
2019-01-18T06:48:30.608Z,10.1
2019-01-18T06:49:20.904Z,10.1
2019-01-18T06:50:10.744Z,10.1
2019-01-18T06:51:01.270Z,10.1
2019-01-18T06:51:50.816Z,10.1
2019-01-18T06:52:41.178Z,10.1
2019-01-18T06:53:30.893Z,10.1
2019-01-18T06:54:21.238Z,10.1
2019-01-18T06:55:10.771Z,10.1
2019-01-18T06:56:01.130Z,10.1
2019-01-18T06:56:51.145Z,10.1
2019-01-18T06:57:41.537Z,10.1
2019-01-18T06:58:31.257Z,10.1
2019-01-18T06:59:21.667Z,10.1
2019-01-18T07:00:11.488Z,10.1
2019-01-18T07:01:01.453Z,10.1
2019-01-18T07:01:50.920Z,10.1
2019-01-18T07:02:41.538Z,10.1
2019-01-18T07:03:31.867Z,10.1
2019-01-18T07:04:21.995Z,10.1
2019-01-18T07:06:47.415Z,10.1
2019-01-18T07:07:36.595Z,10.1
2019-01-18T07:08:27.517Z,10.1
2019-01-18T07:09:17.845Z,10.1
2019-01-18T07:10:07.632Z,10.1
2019-01-18T07:10:57.709Z,10.1
2019-01-18T07:11:46.642Z,10.1
2019-01-18T07:12:37.502Z,10.1
2019-01-18T07:13:28.104Z,10.1
2019-01-18T07:14:17.404Z,10.1
2019-01-18T07:15:08.647Z,10.1
2019-01-18T07:15:58.533Z,10.1
2019-01-18T07:16:48.067Z,10.1
2019-01-18T07:17:37.605Z,10.1
2019-01-18T07:18:29.228Z,10.1
2019-01-18T07:19:18.227Z,10.1
2019-01-18T07:20:08.019Z,10.1
2019-01-18T07:20:58.354Z,10.1
2019-01-18T07:21:48.965Z,10.1
2019-01-18T07:22:37.889Z,10.1
2019-01-18T07:23:30.110Z,10.1
2019-01-18T07:24:19.444Z,10.1
2019-01-18T07:25:08.656Z,10.1
2019-01-18T07:25:57.966Z,10.1
2019-01-18T07:26:49.028Z,10.1
2019-01-18T07:27:38.146Z,10.1
2019-01-18T07:28:28.888Z,10.1
2019-01-18T07:29:19.501Z,10.1
2019-01-18T07:30:09.546Z,10.1
2019-01-18T07:30:58.453Z,10.1
2019-01-18T07:31:48.827Z,10.1
2019-01-18T07:32:38.873Z,10.1
2019-01-18T07:33:29.211Z,10.1
2019-01-18T07:34:19.533Z,10.1
2019-01-18T07:35:10.918Z,10.1
2019-01-18T07:35:59.913Z,10.1
2019-01-18T07:36:49.433Z,10.1
2019-01-18T07:37:39.558Z,10.1
2019-01-18T07:38:29.255Z,10.1
2019-01-18T07:39:25.933Z,10.1
2019-01-18T07:40:10.246Z,10.1
2019-01-18T07:40:59.707Z,10.1
2019-01-18T07:41:49.273Z,10.1
2019-01-18T07:42:40.719Z,10.1
2019-01-18T07:43:30.500Z,10.1
2019-01-18T07:44:20.598Z,10.1
2019-01-18T07:45:10.320Z,10.1
2019-01-18T07:45:59.825Z,10.1
2019-01-18T07:46:50.208Z,10.1
2019-01-18T07:47:40.207Z,10.1
2019-01-18T07:48:30.267Z,10.1
2019-01-18T07:49:20.637Z,10.1
2019-01-18T07:50:10.154Z,10.1
2019-01-18T07:50:59.848Z,10.1
2019-01-18T07:51:50.792Z,10.1
2019-01-18T07:52:40.799Z,10.1
2019-01-18T07:53:30.874Z,10.1
2019-01-18T07:54:20.629Z,10.1
2019-01-18T07:55:10.134Z,10.1
2019-01-18T07:56:00.504Z,10.1
2019-01-18T07:56:50.559Z,10.1
2019-01-18T07:57:41.166Z,10.1
2019-01-18T07:58:30.901Z,10.1
2019-01-18T07:59:21.266Z,10.1
2019-01-18T08:00:11.346Z,10.1
2019-01-18T08:01:03.069Z,10.1
2019-01-18T08:01:50.596Z,10.1
2019-01-18T08:02:41.498Z,10.1
2019-01-18T08:03:31.291Z,10.1
2019-01-18T08:04:20.785Z,10.1
2019-01-18T08:05:11.448Z,10.1
2019-01-18T08:06:01.166Z,10.1
2019-01-18T08:06:51.479Z,10.1
2019-01-18T08:07:41.018Z,10.1
2019-01-18T08:08:31.321Z,10.1
2019-01-18T08:09:21.994Z,10.1
2019-01-18T08:10:11.994Z,10.1
2019-01-18T08:11:02.358Z,10.1
2019-01-18T08:11:51.891Z,10.1
2019-01-18T08:12:41.383Z,10.1
2019-01-18T08:13:31.673Z,10.1
2019-01-18T08:14:22.058Z,10.1
2019-01-18T08:15:12.353Z,10.1
2019-01-18T08:16:02.688Z,10.1
2019-01-18T08:16:52.718Z,10.1
2019-01-18T08:17:42.848Z,10.1
2019-01-18T08:18:32.273Z,10.1
2019-01-18T08:19:22.638Z,10.1
2019-01-18T08:20:12.389Z,10.1
2019-01-18T08:21:03.051Z,10.1
2019-01-18T08:21:53.112Z,10.1
2019-01-18T08:22:42.587Z,10.1
2019-01-18T08:23:32.630Z,10.1
2019-01-18T08:24:22.945Z,10.1
2019-01-18T08:25:12.760Z,10.1
2019-01-18T08:26:02.507Z,10.1
2019-01-18T08:26:52.335Z,10.1
2019-01-18T08:27:42.950Z,10.1
2019-01-18T08:28:33.535Z,10.1
2019-01-18T08:29:23.324Z,10.1
2019-01-18T08:30:12.871Z,10.1
2019-01-18T08:31:03.702Z,10.1
2019-01-18T08:31:53.754Z,10.1
2019-01-18T08:32:43.293Z,10.1
2019-01-18T08:33:32.502Z,10.1
2019-01-18T08:34:22.619Z,10.1
2019-01-18T08:35:13.777Z,10.1
2019-01-18T08:36:03.560Z,10.1
2019-01-18T08:36:53.576Z,10.1
2019-01-18T08:37:44.155Z,10.1
2019-01-18T08:38:32.934Z,10.1
2019-01-18T08:39:24.001Z,10.1
2019-01-18T08:40:14.086Z,10.1
2019-01-18T08:41:04.464Z,10.1
2019-01-18T08:41:53.649Z,10.1
2019-01-18T08:42:43.956Z,10.1
2019-01-18T08:43:33.464Z,10.1
2019-01-18T08:44:23.793Z,10.1
2019-01-18T08:45:13.941Z,10.1
2019-01-18T08:46:03.145Z,10.1
2019-01-18T08:46:54.056Z,10.1
2019-01-18T08:47:44.358Z,10.1
2019-01-18T08:48:34.697Z,10.1
2019-01-18T08:49:23.971Z,10.1
2019-01-18T08:50:14.801Z,10.1
2019-01-18T08:51:05.868Z,10.1
2019-01-18T08:51:53.563Z,10.1
2019-01-18T08:52:45.176Z,10.1
2019-01-18T08:53:34.201Z,10.1
2019-01-18T08:54:25.296Z,10.1
2019-01-18T08:55:15.105Z,10.1
2019-01-18T08:56:04.887Z,10.1
2019-01-18T08:56:55.174Z,10.1
2019-01-18T08:57:44.752Z,10.1
2019-01-18T08:58:34.550Z,10.1
2019-01-18T08:59:24.845Z,10.1
2019-01-18T09:00:14.635Z,10.2
2019-01-18T09:01:04.678Z,10.1
2019-01-18T09:01:56.127Z,10.2
2019-01-18T09:02:45.032Z,10.1
2019-01-18T09:03:35.653Z,10.1
2019-01-18T09:04:24.867Z,10.2
2019-01-18T09:05:16.835Z,10.1
2019-01-18T09:06:05.878Z,10.2
2019-01-18T09:06:55.410Z,10.2
2019-01-18T09:07:45.375Z,10.2
2019-01-18T09:08:35.469Z,10.2
2019-01-18T09:09:25.536Z,10.2
2019-01-18T09:10:15.827Z,10.2
2019-01-18T09:11:05.351Z,10.2
2019-01-18T09:11:55.682Z,10.2
2019-01-18T09:12:46.829Z,10.2
2019-01-18T09:13:36.884Z,10.2
2019-01-18T09:14:28.652Z,10.2
2019-01-18T09:15:15.903Z,10.2
2019-01-18T09:16:05.929Z,10.2
2019-01-18T09:16:55.434Z,10.2
2019-01-18T09:17:46.077Z,10.2
2019-01-18T09:18:37.967Z,10.2
2019-01-18T09:19:26.177Z,10.2
2019-01-18T09:20:15.983Z,10.2
2019-01-18T09:21:06.864Z,10.2
2019-01-18T09:21:57.181Z,10.2
2019-01-18T09:22:46.681Z,10.2
2019-01-18T09:23:36.469Z,10.2
2019-01-18T09:24:27.161Z,10.2
2019-01-18T09:25:16.858Z,10.2
2019-01-18T09:26:06.934Z,10.2
2019-01-18T09:26:57.234Z,10.2
2019-01-18T09:27:46.766Z,10.2
2019-01-18T09:28:36.243Z,10.2
2019-01-18T09:29:27.755Z,10.2
2019-01-18T09:30:16.911Z,10.2
2019-01-18T09:31:07.811Z,10.3
2019-01-18T09:31:57.611Z,10.2
2019-01-18T09:32:47.360Z,10.2
2019-01-18T09:33:37.710Z,10.2
2019-01-18T09:34:28.065Z,10.2
2019-01-18T09:35:17.543Z,10.3
2019-01-18T09:36:07.590Z,10.2
2019-01-18T09:36:57.620Z,10.3
2019-01-18T09:37:48.313Z,10.3
2019-01-18T09:38:38.100Z,10.3
2019-01-18T09:39:27.828Z,10.3
2019-01-18T09:40:18.785Z,10.3
2019-01-18T09:41:07.107Z,10.3
2019-01-18T09:41:58.550Z,10.3
2019-01-18T09:42:47.802Z,10.3
2019-01-18T09:43:38.112Z,10.3
2019-01-18T09:44:28.480Z,10.3
2019-01-18T09:45:19.060Z,10.3
2019-01-18T09:46:08.012Z,10.3
2019-01-18T09:46:58.057Z,10.3
2019-01-18T09:47:48.687Z,10.3
2019-01-18T09:48:37.899Z,10.3
2019-01-18T09:49:28.797Z,10.3
2019-01-18T09:50:18.338Z,10.3
2019-01-18T09:51:09.150Z,10.3
2019-01-18T09:51:59.227Z,10.3
2019-01-18T09:52:48.739Z,10.3
2019-01-18T09:53:39.354Z,10.3
2019-01-18T09:54:28.597Z,10.3
2019-01-18T09:55:18.903Z,10.3
2019-01-18T09:56:08.979Z,10.3
2019-01-18T09:56:59.077Z,10.3
2019-01-18T09:57:48.955Z,10.3
2019-01-18T09:58:38.382Z,10.3
2019-01-18T09:59:28.489Z,10.3
2019-01-18T10:00:18.770Z,10.3
2019-01-18T10:01:10.559Z,10.3
2019-01-18T10:01:58.876Z,10.3
2019-01-18T10:02:48.958Z,10.3
2019-01-18T10:03:39.566Z,10.3
2019-01-18T10:04:29.329Z,10.3
2019-01-18T10:05:19.371Z,10.3
2019-01-18T10:07:47.322Z,10.3
2019-01-18T10:08:37.858Z,10.3
2019-01-18T10:09:27.963Z,10.3
2019-01-18T10:10:17.478Z,10.3
2019-01-18T10:11:06.986Z,10.3
2019-01-18T10:11:56.963Z,10.3
2019-01-18T10:12:47.353Z,10.3
2019-01-18T10:13:38.911Z,10.3
2019-01-18T10:14:27.703Z,10.3
2019-01-18T10:15:16.791Z,10.3
2019-01-18T10:16:07.963Z,10.3
2019-01-18T10:16:57.693Z,10.3
2019-01-18T10:17:48.213Z,10.3
2019-01-18T10:18:37.263Z,10.3
2019-01-18T10:19:28.312Z,10.3
2019-01-18T10:20:18.099Z,10.3
2019-01-18T10:21:08.523Z,10.3
2019-01-18T10:21:57.445Z,10.3
2019-01-18T10:22:47.244Z,10.3
2019-01-18T10:23:37.601Z,10.3
2019-01-18T10:24:29.627Z,10.3
2019-01-18T10:25:18.763Z,10.3
2019-01-18T10:26:08.541Z,10.3
2019-01-18T10:26:58.308Z,10.4
2019-01-18T10:27:48.624Z,10.4
2019-01-18T10:28:38.989Z,10.4
2019-01-18T10:29:35.459Z,10.4
2019-01-18T10:30:19.399Z,10.4
2019-01-18T10:31:09.199Z,10.4
2019-01-18T10:32:04.510Z,10.4
2019-01-18T10:32:49.290Z,10.4
2019-01-18T10:33:39.042Z,10.4
2019-01-18T10:34:29.962Z,10.4
2019-01-18T10:35:19.974Z,10.4
2019-01-18T10:36:08.371Z,10.4
2019-01-18T10:37:00.938Z,10.3
2019-01-18T10:37:49.684Z,10.4
2019-01-18T10:38:39.644Z,10.4
2019-01-18T10:39:30.226Z,10.4
2019-01-18T10:40:19.464Z,10.4
2019-01-18T10:41:10.371Z,10.4
2019-01-18T10:41:59.371Z,10.4
2019-01-18T10:42:50.237Z,10.4
2019-01-18T10:43:39.474Z,10.4
2019-01-18T10:44:30.136Z,10.4
2019-01-18T10:45:19.826Z,10.4
2019-01-18T10:46:09.611Z,10.4
2019-01-18T10:46:58.835Z,10.4
2019-01-18T10:47:49.733Z,10.4
2019-01-18T10:48:39.839Z,10.4
2019-01-18T10:49:30.686Z,10.4
2019-01-18T10:50:19.958Z,10.4
2019-01-18T10:51:10.846Z,10.4
2019-01-18T10:52:00.598Z,10.4
2019-01-18T10:52:49.839Z,10.4
2019-01-18T10:53:40.434Z,10.4
2019-01-18T10:54:30.754Z,10.4
2019-01-18T10:55:21.118Z,10.4
2019-01-18T10:56:10.629Z,10.4
2019-01-18T10:56:59.787Z,10.4
2019-01-18T10:57:51.030Z,10.4
2019-01-18T10:58:41.077Z,10.4
2019-01-18T10:59:31.378Z,10.4
2019-01-18T11:00:21.148Z,10.4
2019-01-18T11:01:11.251Z,10.4
2019-01-18T11:02:14.164Z,10.4
2019-01-18T11:02:50.978Z,10.4
2019-01-18T11:03:41.030Z,10.4
2019-01-18T11:04:31.100Z,10.4
2019-01-18T11:05:21.758Z,10.4
2019-01-18T11:06:11.791Z,10.4
2019-01-18T11:07:01.335Z,10.4
2019-01-18T11:07:51.076Z,10.4
2019-01-18T11:08:40.827Z,10.4
2019-01-18T11:09:31.443Z,10.4
2019-01-18T11:10:21.225Z,10.4
2019-01-18T11:11:11.087Z,10.4
2019-01-18T11:12:01.377Z,10.4
2019-01-18T11:12:52.189Z,10.4
2019-01-18T11:13:41.700Z,10.4
2019-01-18T11:14:32.064Z,10.4
2019-01-18T11:15:21.816Z,10.4
2019-01-18T11:16:11.650Z,10.4
2019-01-18T11:17:02.584Z,10.5
2019-01-18T11:17:52.565Z,10.4
2019-01-18T11:18:42.061Z,10.4
2019-01-18T11:19:31.854Z,10.4
2019-01-18T11:20:21.629Z,10.4
2019-01-18T11:21:12.772Z,10.5
2019-01-18T11:22:01.717Z,10.5
2019-01-18T11:22:52.351Z,10.5
2019-01-18T11:23:42.963Z,10.5
2019-01-18T11:24:32.749Z,10.5
2019-01-18T11:25:23.602Z,10.5
2019-01-18T11:26:12.629Z,10.5
2019-01-18T11:27:02.363Z,10.5
2019-01-18T11:27:52.956Z,10.5
2019-01-18T11:28:42.236Z,10.5
2019-01-18T11:29:32.781Z,10.5
2019-01-18T11:30:23.158Z,10.5
2019-01-18T11:31:13.216Z,10.5
2019-01-18T11:32:03.499Z,10.5
2019-01-18T11:32:52.738Z,10.5
2019-01-18T11:33:43.101Z,10.5
2019-01-18T11:34:32.296Z,10.5
2019-01-18T11:35:23.818Z,10.5
2019-01-18T11:36:12.953Z,10.5
2019-01-18T11:37:06.903Z,10.5
2019-01-18T11:37:52.825Z,10.5
2019-01-18T11:38:43.430Z,10.5
2019-01-18T11:39:33.800Z,10.5
2019-01-18T11:40:23.256Z,10.6
2019-01-18T11:41:13.603Z,10.5
2019-01-18T11:42:07.605Z,10.5
2019-01-18T11:42:53.788Z,10.5
2019-01-18T11:43:43.513Z,10.6
2019-01-18T11:44:34.153Z,10.6
2019-01-18T11:45:23.667Z,10.6
2019-01-18T11:46:13.116Z,10.6
2019-01-18T11:47:04.273Z,10.5
2019-01-18T11:47:54.095Z,10.5
2019-01-18T11:48:44.700Z,10.6
2019-01-18T11:49:34.494Z,10.6
2019-01-18T11:50:24.302Z,10.6
2019-01-18T11:51:14.302Z,10.6
2019-01-18T11:52:04.149Z,10.6
2019-01-18T11:52:53.849Z,10.6
2019-01-18T11:53:45.924Z,10.6
2019-01-18T11:54:34.813Z,10.6
2019-01-18T11:55:25.132Z,10.6
2019-01-18T11:56:15.248Z,10.6
2019-01-18T11:57:03.906Z,10.6
2019-01-18T11:57:54.809Z,10.6
2019-01-18T11:58:45.352Z,10.6
2019-01-18T11:59:35.412Z,10.6
2019-01-18T12:00:25.221Z,10.6
2019-01-18T12:01:14.987Z,10.6
2019-01-18T12:02:04.784Z,10.6
2019-01-18T12:02:55.153Z,10.6
2019-01-18T12:03:45.691Z,10.6
2019-01-18T12:04:35.264Z,10.6
2019-01-18T12:05:25.636Z,10.6
2019-01-18T12:07:46.864Z,10.6
2019-01-18T12:08:42.431Z,10.6
2019-01-18T12:09:27.521Z,10.6
2019-01-18T12:10:17.642Z,10.6
2019-01-18T12:11:08.235Z,10.6
2019-01-18T12:11:57.696Z,10.6
2019-01-18T12:12:47.191Z,10.6
2019-01-18T12:13:36.719Z,10.6
2019-01-18T12:14:28.221Z,10.6
2019-01-18T12:15:17.671Z,10.6
2019-01-18T12:16:07.174Z,10.6
2019-01-18T12:16:57.821Z,10.6
2019-01-18T12:17:47.851Z,10.6
2019-01-18T12:18:37.883Z,10.6
2019-01-18T12:19:27.651Z,10.6
2019-01-18T12:20:17.490Z,10.6
2019-01-18T12:21:07.240Z,10.6
2019-01-18T12:21:57.837Z,10.6
2019-01-18T12:22:48.746Z,10.6
2019-01-18T12:23:37.644Z,10.6
2019-01-18T12:24:28.303Z,10.6
2019-01-18T12:25:18.605Z,10.6
2019-01-18T12:26:08.440Z,10.6
2019-01-18T12:26:58.705Z,10.6
2019-01-18T12:27:47.973Z,10.6
2019-01-18T12:28:38.265Z,10.7
2019-01-18T12:29:30.472Z,10.6
2019-01-18T12:30:18.192Z,10.7
2019-01-18T12:31:09.559Z,10.7
2019-01-18T12:31:58.368Z,10.7
2019-01-18T12:32:48.633Z,10.7
2019-01-18T12:33:38.145Z,10.7
2019-01-18T12:34:28.791Z,10.7
2019-01-18T12:35:18.008Z,10.7
2019-01-18T12:36:08.334Z,10.7
2019-01-18T12:37:06.268Z,10.7
2019-01-18T12:37:48.734Z,10.7
2019-01-18T12:38:39.051Z,10.7
2019-01-18T12:39:29.860Z,10.7
2019-01-18T12:40:19.397Z,10.7
2019-01-18T12:41:08.597Z,10.7
2019-01-18T12:41:59.188Z,10.7
2019-01-18T12:42:48.977Z,10.7
2019-01-18T12:43:39.705Z,10.7
2019-01-18T12:44:30.217Z,10.7
2019-01-18T12:45:18.595Z,10.7
2019-01-18T12:46:08.930Z,10.7
2019-01-18T12:46:59.832Z,10.8
2019-01-18T12:47:50.171Z,10.7
2019-01-18T12:48:39.650Z,10.7
2019-01-18T12:49:30.018Z,10.7
2019-01-18T12:50:20.915Z,10.8
2019-01-18T12:51:11.880Z,10.8
2019-01-18T12:52:00.424Z,10.8
2019-01-18T12:52:49.933Z,10.8
2019-01-18T12:53:40.560Z,10.8
2019-01-18T12:54:30.910Z,10.8
2019-01-18T12:55:20.980Z,10.8
2019-01-18T12:56:10.719Z,10.8
2019-01-18T12:57:00.769Z,10.8
2019-01-18T12:57:50.012Z,10.8
2019-01-18T12:58:40.351Z,10.8
2019-01-18T12:59:31.014Z,10.8
2019-01-18T13:00:20.858Z,10.8
2019-01-18T13:01:11.065Z,10.8
2019-01-18T13:02:01.187Z,10.8
2019-01-18T13:02:51.182Z,10.8
2019-01-18T13:03:41.233Z,10.8
2019-01-18T13:04:31.074Z,10.8
2019-01-18T13:05:20.671Z,10.8
2019-01-18T13:06:10.844Z,10.8
2019-01-18T13:07:00.982Z,10.8
2019-01-18T13:07:50.463Z,10.8
2019-01-18T13:08:42.081Z,10.8
2019-01-18T13:09:31.663Z,10.8
2019-01-18T13:10:21.241Z,10.8
2019-01-18T13:11:11.251Z,10.8
2019-01-18T13:12:02.416Z,10.8
2019-01-18T13:12:51.682Z,10.8
2019-01-18T13:13:40.285Z,10.8
2019-01-18T13:14:31.181Z,10.8
2019-01-18T13:15:21.783Z,10.8
2019-01-18T13:16:11.908Z,10.8
2019-01-18T13:17:02.803Z,10.8
2019-01-18T13:17:51.930Z,10.8
2019-01-18T13:18:42.288Z,10.8
2019-01-18T13:19:32.378Z,10.8
2019-01-18T13:20:21.845Z,10.8
2019-01-18T13:21:11.648Z,10.8
2019-01-18T13:22:01.386Z,10.8
2019-01-18T13:22:52.341Z,10.8
2019-01-18T13:23:42.613Z,10.8
2019-01-18T13:24:32.157Z,10.8
2019-01-18T13:25:21.953Z,10.8
2019-01-18T13:26:12.880Z,10.8
2019-01-18T13:27:02.081Z,10.8
2019-01-18T13:27:52.614Z,10.8
2019-01-18T13:28:42.697Z,10.8
2019-01-18T13:29:32.770Z,10.8
2019-01-18T13:30:23.690Z,10.8
2019-01-18T13:31:12.840Z,10.8
2019-01-18T13:32:03.487Z,10.8
2019-01-18T13:32:53.282Z,10.8
2019-01-18T13:33:43.037Z,10.8
2019-01-18T13:34:32.862Z,10.8
2019-01-18T13:35:22.772Z,10.8
2019-01-18T13:36:12.941Z,10.9
2019-01-18T13:37:03.367Z,10.8
2019-01-18T13:37:53.879Z,10.8
2019-01-18T13:38:42.557Z,10.9
2019-01-18T13:39:33.518Z,10.9